Bailing-Miao, China
Current Conditions -  °F | °C
As of 10:00 AM on Wednesday 22 Oct 2014 (Local Time) from ZBHH Reporting Station
Few Clouds Few Clouds  
Wind Chill: 55°   Ceiling: Unl
Heat Index: 55°   Visibility: 6mi
Dew Point: 34°   Wind: 2mph
Humidity: 44%   Direction: 260°W
Pressure: 30.15"   Gusts: NA
Location:  41.7°N, 110.43°E
Report Text: ZBHH 220200Z 26001MPS 9999 FEW040 13/01 Q1021 NOSIG
Loading
Personal Weather Stations






























Interactive Weather Map
Tropical Storm Tracking
New forecast layout! Learn more

10-Day Weather Forecast

Advertisements
Track Severe Weather on mobile